sensor_id;sensor_type;location;lat;lon;timestamp;temperature;humidity
5796;DHT22;2924;51.458;7.046;2024-01-25T00:01:42;7.80;99.90
5796;DHT22;2924;51.458;7.046;2024-01-25T00:04:07;7.80;99.90
5796;DHT22;2924;51.458;7.046;2024-01-25T00:06:33;7.70;99.90
5796;DHT22;2924;51.458;7.046;2024-01-25T00:08:59;7.80;99.90
5796;DHT22;2924;51.458;7.046;2024-01-25T00:11:26;7.80;99.90
5796;DHT22;2924;51.458;7.046;2024-01-25T00:13:51;7.80;99.90
5796;DHT22;2924;51.458;7.046;2024-01-25T00:16:17;7.80;99.90
5796;DHT22;2924;51.458;7.046;2024-01-25T00:18:42;7.80;99.90
5796;DHT22;2924;51.458;7.046;2024-01-25T00:21:08;7.80;99.90
5796;DHT22;2924;51.458;7.046;2024-01-25T00:23:34;7.80;99.90
5796;DHT22;2924;51.458;7.046;2024-01-25T00:25:59;7.80;99.90
5796;DHT22;2924;51.458;7.046;2024-01-25T00:28:26;7.80;99.90
5796;DHT22;2924;51.458;7.046;2024-01-25T00:30:51;7.90;99.90
5796;DHT22;2924;51.458;7.046;2024-01-25T00:33:17;7.80;99.90
5796;DHT22;2924;51.458;7.046;2024-01-25T00:35:43;7.70;99.90
5796;DHT22;2924;51.458;7.046;2024-01-25T00:38:09;7.70;99.90
5796;DHT22;2924;51.458;7.046;2024-01-25T00:40:35;7.70;99.90
5796;DHT22;2924;51.458;7.046;2024-01-25T00:43:02;7.70;99.90
5796;DHT22;2924;51.458;7.046;2024-01-25T00:45:28;7.60;99.90
5796;DHT22;2924;51.458;7.046;2024-01-25T00:47:54;7.60;99.90
5796;DHT22;2924;51.458;7.046;2024-01-25T00:50:20;7.60;99.90
5796;DHT22;2924;51.458;7.046;2024-01-25T00:52:52;7.60;99.90
5796;DHT22;2924;51.458;7.046;2024-01-25T00:55:18;7.50;99.90
5796;DHT22;2924;51.458;7.046;2024-01-25T00:57:44;7.40;99.90
5796;DHT22;2924;51.458;7.046;2024-01-25T01:00:10;7.30;99.90
5796;DHT22;2924;51.458;7.046;2024-01-25T01:02:39;7.30;99.90
5796;DHT22;2924;51.458;7.046;2024-01-25T01:05:06;7.10;99.90
5796;DHT22;2924;51.458;7.046;2024-01-25T01:07:32;7.00;99.90
5796;DHT22;2924;51.458;7.046;2024-01-25T01:09:58;6.90;99.90
5796;DHT22;2924;51.458;7.046;2024-01-25T01:12:23;6.90;99.90
5796;DHT22;2924;51.458;7.046;2024-01-25T01:14:49;6.90;99.90
5796;DHT22;2924;51.458;7.046;2024-01-25T01:17:15;6.80;99.90
5796;DHT22;2924;51.458;7.046;2024-01-25T01:19:40;6.70;99.90
5796;DHT22;2924;51.458;7.046;2024-01-25T01:22:06;6.60;99.90
5796;DHT22;2924;51.458;7.046;2024-01-25T01:24:32;6.50;99.90
5796;DHT22;2924;51.458;7.046;2024-01-25T01:26:57;6.50;99.90
5796;DHT22;2924;51.458;7.046;2024-01-25T01:29:24;6.40;99.90
5796;DHT22;2924;51.458;7.046;2024-01-25T01:31:50;6.40;99.90
5796;DHT22;2924;51.458;7.046;2024-01-25T01:34:15;6.40;99.90
5796;DHT22;2924;51.458;7.046;2024-01-25T01:36:43;6.40;99.90
5796;DHT22;2924;51.458;7.046;2024-01-25T01:39:09;6.50;99.90
5796;DHT22;2924;51.458;7.046;2024-01-25T01:41:34;6.50;99.90
5796;DHT22;2924;51.458;7.046;2024-01-25T01:44:00;6.60;99.90
5796;DHT22;2924;51.458;7.046;2024-01-25T01:46:34;6.70;99.90
5796;DHT22;2924;51.458;7.046;2024-01-25T01:49:12;6.80;99.90
5796;DHT22;2924;51.458;7.046;2024-01-25T01:51:38;6.80;99.90
5796;DHT22;2924;51.458;7.046;2024-01-25T01:54:07;6.80;99.90
5796;DHT22;2924;51.458;7.046;2024-01-25T01:56:33;6.90;99.90
5796;DHT22;2924;51.458;7.046;2024-01-25T01:59:05;6.90;99.90
5796;DHT22;2924;51.458;7.046;2024-01-25T02:01:30;6.90;99.90
5796;DHT22;2924;51.458;7.046;2024-01-25T02:03:56;7.00;99.90
5796;DHT22;2924;51.458;7.046;2024-01-25T02:06:23;7.00;99.90
5796;DHT22;2924;51.458;7.046;2024-01-25T02:08:50;7.00;99.90
5796;DHT22;2924;51.458;7.046;2024-01-25T02:11:17;7.00;99.90
5796;DHT22;2924;51.458;7.046;2024-01-25T02:13:42;7.00;99.90
5796;DHT22;2924;51.458;7.046;2024-01-25T02:16:08;6.90;99.90
5796;DHT22;2924;51.458;7.046;2024-01-25T02:18:34;7.00;99.90
5796;DHT22;2924;51.458;7.046;2024-01-25T02:21:00;7.00;99.90
5796;DHT22;2924;51.458;7.046;2024-01-25T02:23:26;7.00;99.90
5796;DHT22;2924;51.458;7.046;2024-01-25T02:25:51;6.90;99.90
5796;DHT22;2924;51.458;7.046;2024-01-25T02:28:17;6.90;99.90
5796;DHT22;2924;51.458;7.046;2024-01-25T02:30:43;6.90;99.90
5796;DHT22;2924;51.458;7.046;2024-01-25T02:33:08;6.90;99.90
5796;DHT22;2924;51.458;7.046;2024-01-25T02:35:34;6.90;99.90
5796;DHT22;2924;51.458;7.046;2024-01-25T02:38:00;6.90;99.90
5796;DHT22;2924;51.458;7.046;2024-01-25T02:40:26;6.70;99.90
5796;DHT22;2924;51.458;7.046;2024-01-25T02:42:51;6.70;99.90
5796;DHT22;2924;51.458;7.046;2024-01-25T02:45:17;6.60;99.90
5796;DHT22;2924;51.458;7.046;2024-01-25T02:47:43;6.40;99.90
5796;DHT22;2924;51.458;7.046;2024-01-25T02:50:09;6.20;99.90
5796;DHT22;2924;51.458;7.046;2024-01-25T02:52:35;6.10;99.90
5796;DHT22;2924;51.458;7.046;2024-01-25T02:55:00;6.00;99.90
5796;DHT22;2924;51.458;7.046;2024-01-25T02:57:26;5.90;99.90
5796;DHT22;2924;51.458;7.046;2024-01-25T02:59:52;5.80;99.90
5796;DHT22;2924;51.458;7.046;2024-01-25T03:02:18;5.70;99.90
5796;DHT22;2924;51.458;7.046;2024-01-25T03:04:46;5.60;99.90
5796;DHT22;2924;51.458;7.046;2024-01-25T03:07:12;5.60;99.90
5796;DHT22;2924;51.458;7.046;2024-01-25T03:09:37;5.60;99.90
5796;DHT22;2924;51.458;7.046;2024-01-25T03:12:03;5.50;99.90
5796;DHT22;2924;51.458;7.046;2024-01-25T03:14:29;5.40;99.90
5796;DHT22;2924;51.458;7.046;2024-01-25T03:16:54;5.50;99.90
5796;DHT22;2924;51.458;7.046;2024-01-25T03:19:20;5.40;99.90
5796;DHT22;2924;51.458;7.046;2024-01-25T03:21:45;5.30;99.90
5796;DHT22;2924;51.458;7.046;2024-01-25T03:24:11;5.30;99.90
5796;DHT22;2924;51.458;7.046;2024-01-25T03:26:36;5.30;99.90
5796;DHT22;2924;51.458;7.046;2024-01-25T03:29:02;5.20;99.90
5796;DHT22;2924;51.458;7.046;2024-01-25T03:31:28;5.10;99.90
5796;DHT22;2924;51.458;7.046;2024-01-25T03:33:53;5.10;99.90
5796;DHT22;2924;51.458;7.046;2024-01-25T03:36:19;4.90;99.90
5796;DHT22;2924;51.458;7.046;2024-01-25T03:38:44;4.90;99.90
5796;DHT22;2924;51.458;7.046;2024-01-25T03:41:10;4.80;99.90
5796;DHT22;2924;51.458;7.046;2024-01-25T03:43:35;4.80;99.90
5796;DHT22;2924;51.458;7.046;2024-01-25T03:46:01;4.80;99.90
5796;DHT22;2924;51.458;7.046;2024-01-25T03:48:28;4.80;99.90
5796;DHT22;2924;51.458;7.046;2024-01-25T03:50:53;4.80;99.90
5796;DHT22;2924;51.458;7.046;2024-01-25T03:53:24;4.80;99.90
5796;DHT22;2924;51.458;7.046;2024-01-25T03:55:50;4.80;99.90
5796;DHT22;2924;51.458;7.046;2024-01-25T03:58:17;4.70;99.90
5796;DHT22;2924;51.458;7.046;2024-01-25T04:00:43;4.70;99.90
5796;DHT22;2924;51.458;7.046;2024-01-25T04:03:10;4.60;99.90
5796;DHT22;2924;51.458;7.046;2024-01-25T04:05:35;4.60;99.90
5796;DHT22;2924;51.458;7.046;2024-01-25T04:08:01;4.60;99.90
5796;DHT22;2924;51.458;7.046;2024-01-25T04:10:27;4.60;99.90
5796;DHT22;2924;51.458;7.046;2024-01-25T04:12:52;4.50;99.90
5796;DHT22;2924;51.458;7.046;2024-01-25T04:15:18;4.60;99.90
5796;DHT22;2924;51.458;7.046;2024-01-25T04:17:43;4.60;99.90
5796;DHT22;2924;51.458;7.046;2024-01-25T04:20:09;4.60;99.90
5796;DHT22;2924;51.458;7.046;2024-01-25T04:22:36;4.60;99.90
5796;DHT22;2924;51.458;7.046;2024-01-25T04:25:02;4.60;99.90
5796;DHT22;2924;51.458;7.046;2024-01-25T04:27:27;4.60;99.90
5796;DHT22;2924;51.458;7.046;2024-01-25T04:29:53;4.50;99.90
5796;DHT22;2924;51.458;7.046;2024-01-25T04:32:18;4.50;99.90
5796;DHT22;2924;51.458;7.046;2024-01-25T04:34:44;4.40;99.90
5796;DHT22;2924;51.458;7.046;2024-01-25T04:37:12;4.40;99.90
5796;DHT22;2924;51.458;7.046;2024-01-25T04:39:37;4.40;99.90
5796;DHT22;2924;51.458;7.046;2024-01-25T04:42:03;4.30;99.90
5796;DHT22;2924;51.458;7.046;2024-01-25T04:44:29;4.30;99.90
5796;DHT22;2924;51.458;7.046;2024-01-25T04:46:54;4.30;99.90
5796;DHT22;2924;51.458;7.046;2024-01-25T04:49:20;4.30;99.90
5796;DHT22;2924;51.458;7.046;2024-01-25T04:51:45;4.30;99.90
5796;DHT22;2924;51.458;7.046;2024-01-25T04:54:11;4.30;99.90
5796;DHT22;2924;51.458;7.046;2024-01-25T04:56:38;4.30;99.90
5796;DHT22;2924;51.458;7.046;2024-01-25T04:59:04;4.20;99.90
5796;DHT22;2924;51.458;7.046;2024-01-25T05:01:29;4.20;99.90
5796;DHT22;2924;51.458;7.046;2024-01-25T05:03:55;4.20;99.90
5796;DHT22;2924;51.458;7.046;2024-01-25T05:06:20;4.10;99.90
5796;DHT22;2924;51.458;7.046;2024-01-25T05:08:46;4.00;99.90
5796;DHT22;2924;51.458;7.046;2024-01-25T05:11:12;4.00;99.90
5796;DHT22;2924;51.458;7.046;2024-01-25T05:13:37;4.10;99.90
5796;DHT22;2924;51.458;7.046;2024-01-25T05:16:03;4.00;99.90
5796;DHT22;2924;51.458;7.046;2024-01-25T05:18:29;3.90;99.90
5796;DHT22;2924;51.458;7.046;2024-01-25T05:20:54;3.90;99.90
5796;DHT22;2924;51.458;7.046;2024-01-25T05:23:20;3.90;99.90
5796;DHT22;2924;51.458;7.046;2024-01-25T05:25:45;4.00;99.90
5796;DHT22;2924;51.458;7.046;2024-01-25T05:28:11;3.90;99.90
5796;DHT22;2924;51.458;7.046;2024-01-25T05:30:36;4.00;99.90
5796;DHT22;2924;51.458;7.046;2024-01-25T05:33:02;4.00;99.90
5796;DHT22;2924;51.458;7.046;2024-01-25T05:35:28;4.00;99.90
5796;DHT22;2924;51.458;7.046;2024-01-25T05:37:53;4.00;99.90
5796;DHT22;2924;51.458;7.046;2024-01-25T05:40:19;4.00;99.90
5796;DHT22;2924;51.458;7.046;2024-01-25T05:42:45;4.00;99.90
5796;DHT22;2924;51.458;7.046;2024-01-25T05:45:10;4.00;99.90
5796;DHT22;2924;51.458;7.046;2024-01-25T05:47:36;3.90;99.90
5796;DHT22;2924;51.458;7.046;2024-01-25T05:50:02;3.90;99.90
5796;DHT22;2924;51.458;7.046;2024-01-25T05:52:28;3.80;99.90
5796;DHT22;2924;51.458;7.046;2024-01-25T05:54:54;3.80;99.90
5796;DHT22;2924;51.458;7.046;2024-01-25T05:57:20;3.70;99.90
5796;DHT22;2924;51.458;7.046;2024-01-25T05:59:46;3.70;99.90
5796;DHT22;2924;51.458;7.046;2024-01-25T06:02:11;3.70;99.90
5796;DHT22;2924;51.458;7.046;2024-01-25T06:04:37;3.80;99.90
5796;DHT22;2924;51.458;7.046;2024-01-25T06:07:03;3.80;99.90
5796;DHT22;2924;51.458;7.046;2024-01-25T06:09:29;3.80;99.90
5796;DHT22;2924;51.458;7.046;2024-01-25T06:11:54;3.80;99.90
5796;DHT22;2924;51.458;7.046;2024-01-25T06:14:20;3.70;99.90
5796;DHT22;2924;51.458;7.046;2024-01-25T06:16:46;3.80;99.90
5796;DHT22;2924;51.458;7.046;2024-01-25T06:19:11;3.80;99.90
5796;DHT22;2924;51.458;7.046;2024-01-25T06:21:37;3.80;99.90
5796;DHT22;2924;51.458;7.046;2024-01-25T06:24:04;3.80;99.90
5796;DHT22;2924;51.458;7.046;2024-01-25T06:26:30;3.80;99.90
5796;DHT22;2924;51.458;7.046;2024-01-25T06:28:56;3.80;99.90
5796;DHT22;2924;51.458;7.046;2024-01-25T06:31:22;3.80;99.90
5796;DHT22;2924;51.458;7.046;2024-01-25T06:33:48;3.80;99.90
5796;DHT22;2924;51.458;7.046;2024-01-25T06:36:16;3.80;99.90
5796;DHT22;2924;51.458;7.046;2024-01-25T06:38:42;3.80;99.90
5796;DHT22;2924;51.458;7.046;2024-01-25T06:41:08;3.80;99.90
5796;DHT22;2924;51.458;7.046;2024-01-25T06:43:34;3.80;99.90
5796;DHT22;2924;51.458;7.046;2024-01-25T06:46:00;3.70;99.90
5796;DHT22;2924;51.458;7.046;2024-01-25T06:48:25;3.70;99.90
5796;DHT22;2924;51.458;7.046;2024-01-25T06:50:51;3.70;99.90
5796;DHT22;2924;51.458;7.046;2024-01-25T06:53:17;3.70;99.90
5796;DHT22;2924;51.458;7.046;2024-01-25T06:55:42;3.80;99.90
5796;DHT22;2924;51.458;7.046;2024-01-25T06:58:08;3.80;99.90
5796;DHT22;2924;51.458;7.046;2024-01-25T07:00:33;3.80;99.90
5796;DHT22;2924;51.458;7.046;2024-01-25T07:02:59;3.90;99.90
5796;DHT22;2924;51.458;7.046;2024-01-25T07:05:25;4.00;99.90
5796;DHT22;2924;51.458;7.046;2024-01-25T07:07:52;3.90;99.90
5796;DHT22;2924;51.458;7.046;2024-01-25T07:10:17;3.90;99.90
5796;DHT22;2924;51.458;7.046;2024-01-25T07:12:43;3.90;99.90
5796;DHT22;2924;51.458;7.046;2024-01-25T07:15:08;3.90;99.90
5796;DHT22;2924;51.458;7.046;2024-01-25T07:17:34;3.90;99.90
5796;DHT22;2924;51.458;7.046;2024-01-25T07:20:00;3.80;99.90
5796;DHT22;2924;51.458;7.046;2024-01-25T07:22:25;3.80;99.90
5796;DHT22;2924;51.458;7.046;2024-01-25T07:24:51;3.80;99.90
5796;DHT22;2924;51.458;7.046;2024-01-25T07:27:16;3.90;99.90
5796;DHT22;2924;51.458;7.046;2024-01-25T07:29:44;3.90;99.90
5796;DHT22;2924;51.458;7.046;2024-01-25T07:32:11;3.90;99.90
5796;DHT22;2924;51.458;7.046;2024-01-25T07:34:36;4.00;99.90
5796;DHT22;2924;51.458;7.046;2024-01-25T07:37:03;4.00;99.90
5796;DHT22;2924;51.458;7.046;2024-01-25T07:39:28;3.90;99.90
5796;DHT22;2924;51.458;7.046;2024-01-25T07:41:54;4.00;99.90
5796;DHT22;2924;51.458;7.046;2024-01-25T07:44:20;4.00;99.90
5796;DHT22;2924;51.458;7.046;2024-01-25T07:46:45;4.10;99.90
5796;DHT22;2924;51.458;7.046;2024-01-25T07:49:11;4.20;99.90
5796;DHT22;2924;51.458;7.046;2024-01-25T07:51:37;4.20;99.90
5796;DHT22;2924;51.458;7.046;2024-01-25T07:54:02;4.30;99.90
5796;DHT22;2924;51.458;7.046;2024-01-25T07:56:28;4.40;99.90
5796;DHT22;2924;51.458;7.046;2024-01-25T07:58:54;4.40;99.90
5796;DHT22;2924;51.458;7.046;2024-01-25T08:01:20;4.40;99.90
5796;DHT22;2924;51.458;7.046;2024-01-25T08:03:46;4.40;99.90
5796;DHT22;2924;51.458;7.046;2024-01-25T08:06:12;4.50;99.90
5796;DHT22;2924;51.458;7.046;2024-01-25T08:08:37;4.60;99.90
5796;DHT22;2924;51.458;7.046;2024-01-25T08:11:03;4.60;99.90
5796;DHT22;2924;51.458;7.046;2024-01-25T08:13:33;4.60;99.90
5796;DHT22;2924;51.458;7.046;2024-01-25T08:15:59;4.70;99.90
5796;DHT22;2924;51.458;7.046;2024-01-25T08:18:25;4.70;99.90
5796;DHT22;2924;51.458;7.046;2024-01-25T08:20:52;4.80;99.90
5796;DHT22;2924;51.458;7.046;2024-01-25T08:23:18;4.80;99.90
5796;DHT22;2924;51.458;7.046;2024-01-25T08:25:44;4.80;99.90
5796;DHT22;2924;51.458;7.046;2024-01-25T08:28:10;4.90;99.90
5796;DHT22;2924;51.458;7.046;2024-01-25T08:30:35;4.90;99.90
5796;DHT22;2924;51.458;7.046;2024-01-25T08:33:01;4.90;99.90
5796;DHT22;2924;51.458;7.046;2024-01-25T08:35:26;5.00;99.90
5796;DHT22;2924;51.458;7.046;2024-01-25T08:37:52;5.00;99.90
5796;DHT22;2924;51.458;7.046;2024-01-25T08:40:18;5.00;99.90
5796;DHT22;2924;51.458;7.046;2024-01-25T08:42:43;5.10;99.90
5796;DHT22;2924;51.458;7.046;2024-01-25T08:45:09;5.10;99.90
5796;DHT22;2924;51.458;7.046;2024-01-25T08:47:36;5.10;99.90
5796;DHT22;2924;51.458;7.046;2024-01-25T08:50:02;5.10;99.90
5796;DHT22;2924;51.458;7.046;2024-01-25T08:52:29;5.20;99.90
5796;DHT22;2924;51.458;7.046;2024-01-25T08:54:54;5.20;99.90
5796;DHT22;2924;51.458;7.046;2024-01-25T08:57:20;5.20;99.90
5796;DHT22;2924;51.458;7.046;2024-01-25T08:59:46;5.30;99.90
5796;DHT22;2924;51.458;7.046;2024-01-25T09:02:11;5.30;99.90
5796;DHT22;2924;51.458;7.046;2024-01-25T09:04:37;5.40;99.90
5796;DHT22;2924;51.458;7.046;2024-01-25T09:07:03;5.40;99.90
5796;DHT22;2924;51.458;7.046;2024-01-25T09:09:28;5.40;99.90
5796;DHT22;2924;51.458;7.046;2024-01-25T09:11:54;5.60;99.90
5796;DHT22;2924;51.458;7.046;2024-01-25T09:14:20;5.60;99.90
5796;DHT22;2924;51.458;7.046;2024-01-25T09:16:46;5.70;99.90
5796;DHT22;2924;51.458;7.046;2024-01-25T09:19:12;6.00;99.90
5796;DHT22;2924;51.458;7.046;2024-01-25T09:21:40;6.20;99.90
5796;DHT22;2924;51.458;7.046;2024-01-25T09:24:06;6.50;99.90
5796;DHT22;2924;51.458;7.046;2024-01-25T09:26:33;6.60;99.90
5796;DHT22;2924;51.458;7.046;2024-01-25T09:28:58;6.60;99.90
5796;DHT22;2924;51.458;7.046;2024-01-25T09:31:24;6.70;99.90
5796;DHT22;2924;51.458;7.046;2024-01-25T09:33:49;6.70;99.90
5796;DHT22;2924;51.458;7.046;2024-01-25T09:36:16;6.70;99.90
5796;DHT22;2924;51.458;7.046;2024-01-25T09:38:42;6.90;99.90
5796;DHT22;2924;51.458;7.046;2024-01-25T09:41:08;6.90;99.90
5796;DHT22;2924;51.458;7.046;2024-01-25T09:43:33;7.10;99.90
5796;DHT22;2924;51.458;7.046;2024-01-25T09:46:00;7.20;99.90
5796;DHT22;2924;51.458;7.046;2024-01-25T09:48:26;7.20;99.90
5796;DHT22;2924;51.458;7.046;2024-01-25T09:50:55;7.10;99.90
5796;DHT22;2924;51.458;7.046;2024-01-25T09:53:22;7.20;99.90
5796;DHT22;2924;51.458;7.046;2024-01-25T09:56:07;7.50;99.90
5796;DHT22;2924;51.458;7.046;2024-01-25T09:58:43;7.60;99.90
5796;DHT22;2924;51.458;7.046;2024-01-25T10:01:10;7.60;99.90
5796;DHT22;2924;51.458;7.046;2024-01-25T10:03:37;7.60;99.90
5796;DHT22;2924;51.458;7.046;2024-01-25T10:06:02;7.60;99.90
5796;DHT22;2924;51.458;7.046;2024-01-25T10:08:29;7.60;99.90
5796;DHT22;2924;51.458;7.046;2024-01-25T10:10:55;7.60;99.90
5796;DHT22;2924;51.458;7.046;2024-01-25T10:13:20;7.50;99.90
5796;DHT22;2924;51.458;7.046;2024-01-25T10:15:47;7.50;99.90
5796;DHT22;2924;51.458;7.046;2024-01-25T10:18:13;7.60;99.90
5796;DHT22;2924;51.458;7.046;2024-01-25T10:20:42;7.90;99.90
5796;DHT22;2924;51.458;7.046;2024-01-25T10:23:07;8.10;99.90
5796;DHT22;2924;51.458;7.046;2024-01-25T10:25:36;8.20;99.90
5796;DHT22;2924;51.458;7.046;2024-01-25T10:28:06;8.20;99.90
5796;DHT22;2924;51.458;7.046;2024-01-25T10:30:34;8.30;99.90
5796;DHT22;2924;51.458;7.046;2024-01-25T10:33:00;8.30;99.90
5796;DHT22;2924;51.458;7.046;2024-01-25T10:35:26;8.30;99.90
5796;DHT22;2924;51.458;7.046;2024-01-25T10:37:53;8.40;99.90
5796;DHT22;2924;51.458;7.046;2024-01-25T10:40:19;8.20;99.90
5796;DHT22;2924;51.458;7.046;2024-01-25T10:42:46;8.10;99.90
5796;DHT22;2924;51.458;7.046;2024-01-25T10:45:12;8.00;99.90
5796;DHT22;2924;51.458;7.046;2024-01-25T10:47:38;8.00;99.90
5796;DHT22;2924;51.458;7.046;2024-01-25T10:50:07;8.00;99.90
5796;DHT22;2924;51.458;7.046;2024-01-25T10:52:35;8.10;99.90
5796;DHT22;2924;51.458;7.046;2024-01-25T10:55:01;8.40;99.90
5796;DHT22;2924;51.458;7.046;2024-01-25T10:57:35;8.60;99.90
5796;DHT22;2924;51.458;7.046;2024-01-25T11:00:01;8.90;99.90
5796;DHT22;2924;51.458;7.046;2024-01-25T11:02:29;9.20;99.90
5796;DHT22;2924;51.458;7.046;2024-01-25T11:04:55;9.60;99.90
5796;DHT22;2924;51.458;7.046;2024-01-25T11:07:21;9.90;99.90
5796;DHT22;2924;51.458;7.046;2024-01-25T11:09:51;10.10;99.90
5796;DHT22;2924;51.458;7.046;2024-01-25T11:12:18;10.30;99.90
5796;DHT22;2924;51.458;7.046;2024-01-25T11:14:43;10.50;99.90
5796;DHT22;2924;51.458;7.046;2024-01-25T11:17:19;10.60;99.90
5796;DHT22;2924;51.458;7.046;2024-01-25T11:19:45;10.80;99.90
5796;DHT22;2924;51.458;7.046;2024-01-25T11:22:11;11.40;99.90
5796;DHT22;2924;51.458;7.046;2024-01-25T11:24:38;11.70;99.90
5796;DHT22;2924;51.458;7.046;2024-01-25T11:27:05;12.20;99.90
5796;DHT22;2924;51.458;7.046;2024-01-25T11:29:30;12.60;99.90
5796;DHT22;2924;51.458;7.046;2024-01-25T11:31:56;12.90;99.90
5796;DHT22;2924;51.458;7.046;2024-01-25T11:34:23;13.10;99.90
5796;DHT22;2924;51.458;7.046;2024-01-25T11:36:49;13.20;99.90
5796;DHT22;2924;51.458;7.046;2024-01-25T11:39:16;13.10;99.90
5796;DHT22;2924;51.458;7.046;2024-01-25T11:41:43;12.70;99.90
5796;DHT22;2924;51.458;7.046;2024-01-25T11:44:09;12.40;99.90
5796;DHT22;2924;51.458;7.046;2024-01-25T11:46:36;12.30;99.90
5796;DHT22;2924;51.458;7.046;2024-01-25T11:49:01;12.10;99.90
5796;DHT22;2924;51.458;7.046;2024-01-25T11:51:27;12.10;99.90
5796;DHT22;2924;51.458;7.046;2024-01-25T11:53:53;12.50;99.90
5796;DHT22;2924;51.458;7.046;2024-01-25T11:56:28;12.80;99.90
5796;DHT22;2924;51.458;7.046;2024-01-25T11:58:55;12.90;99.90
5796;DHT22;2924;51.458;7.046;2024-01-25T12:01:23;12.80;99.90
5796;DHT22;2924;51.458;7.046;2024-01-25T12:03:50;12.60;99.90
5796;DHT22;2924;51.458;7.046;2024-01-25T12:06:16;12.20;99.90
5796;DHT22;2924;51.458;7.046;2024-01-25T12:08:42;11.60;99.90
5796;DHT22;2924;51.458;7.046;2024-01-25T12:11:08;11.00;99.90
5796;DHT22;2924;51.458;7.046;2024-01-25T12:13:35;10.70;99.90
5796;DHT22;2924;51.458;7.046;2024-01-25T12:16:02;10.50;99.90
5796;DHT22;2924;51.458;7.046;2024-01-25T12:18:29;10.30;99.90
5796;DHT22;2924;51.458;7.046;2024-01-25T12:20:57;10.10;99.90
5796;DHT22;2924;51.458;7.046;2024-01-25T12:23:23;10.10;99.90
5796;DHT22;2924;51.458;7.046;2024-01-25T12:25:48;9.90;99.90
5796;DHT22;2924;51.458;7.046;2024-01-25T12:28:14;9.70;99.90
5796;DHT22;2924;51.458;7.046;2024-01-25T12:30:39;9.80;99.90
5796;DHT22;2924;51.458;7.046;2024-01-25T12:33:05;9.80;99.90
5796;DHT22;2924;51.458;7.046;2024-01-25T12:35:31;9.90;99.90
5796;DHT22;2924;51.458;7.046;2024-01-25T12:37:56;9.90;99.90
5796;DHT22;2924;51.458;7.046;2024-01-25T12:40:22;9.90;99.90
5796;DHT22;2924;51.458;7.046;2024-01-25T12:42:47;10.00;99.90
5796;DHT22;2924;51.458;7.046;2024-01-25T12:45:13;10.00;99.90
5796;DHT22;2924;51.458;7.046;2024-01-25T12:47:38;9.80;99.90
5796;DHT22;2924;51.458;7.046;2024-01-25T12:50:04;9.50;99.90
5796;DHT22;2924;51.458;7.046;2024-01-25T12:52:30;9.20;99.90
5796;DHT22;2924;51.458;7.046;2024-01-25T12:54:55;9.00;99.90
5796;DHT22;2924;51.458;7.046;2024-01-25T12:57:21;9.00;99.90
5796;DHT22;2924;51.458;7.046;2024-01-25T12:59:47;9.00;99.90
5796;DHT22;2924;51.458;7.046;2024-01-25T13:02:13;9.10;99.90
5796;DHT22;2924;51.458;7.046;2024-01-25T13:04:38;9.30;99.90
5796;DHT22;2924;51.458;7.046;2024-01-25T13:07:04;9.20;99.90
5796;DHT22;2924;51.458;7.046;2024-01-25T13:09:29;9.20;99.90
5796;DHT22;2924;51.458;7.046;2024-01-25T13:11:59;9.10;99.90
5796;DHT22;2924;51.458;7.046;2024-01-25T13:14:24;9.10;99.90
5796;DHT22;2924;51.458;7.046;2024-01-25T13:16:50;9.20;99.90
5796;DHT22;2924;51.458;7.046;2024-01-25T13:19:16;9.30;99.90
5796;DHT22;2924;51.458;7.046;2024-01-25T13:21:41;9.40;99.90
5796;DHT22;2924;51.458;7.046;2024-01-25T13:24:07;9.30;99.90
5796;DHT22;2924;51.458;7.046;2024-01-25T13:26:35;9.30;99.90
5796;DHT22;2924;51.458;7.046;2024-01-25T13:29:01;9.20;99.90
5796;DHT22;2924;51.458;7.046;2024-01-25T13:31:26;9.00;99.90
5796;DHT22;2924;51.458;7.046;2024-01-25T13:33:52;8.90;99.90
5796;DHT22;2924;51.458;7.046;2024-01-25T13:36:18;8.90;99.90
5796;DHT22;2924;51.458;7.046;2024-01-25T13:38:44;8.90;99.90
5796;DHT22;2924;51.458;7.046;2024-01-25T13:41:09;8.80;99.90
5796;DHT22;2924;51.458;7.046;2024-01-25T13:43:35;8.80;99.90
5796;DHT22;2924;51.458;7.046;2024-01-25T13:46:00;8.70;99.90
5796;DHT22;2924;51.458;7.046;2024-01-25T13:48:26;8.70;99.90
5796;DHT22;2924;51.458;7.046;2024-01-25T13:50:52;8.70;99.90
5796;DHT22;2924;51.458;7.046;2024-01-25T13:53:17;8.70;99.90
5796;DHT22;2924;51.458;7.046;2024-01-25T13:55:43;8.60;99.90
5796;DHT22;2924;51.458;7.046;2024-01-25T13:58:09;8.50;99.90
5796;DHT22;2924;51.458;7.046;2024-01-25T14:00:35;8.50;99.90
5796;DHT22;2924;51.458;7.046;2024-01-25T14:03:00;8.50;99.90
5796;DHT22;2924;51.458;7.046;2024-01-25T14:05:26;8.40;99.90
5796;DHT22;2924;51.458;7.046;2024-01-25T14:07:52;8.40;99.90
5796;DHT22;2924;51.458;7.046;2024-01-25T14:10:17;8.40;99.90
5796;DHT22;2924;51.458;7.046;2024-01-25T14:12:44;8.40;99.90
5796;DHT22;2924;51.458;7.046;2024-01-25T14:15:10;8.50;99.90
5796;DHT22;2924;51.458;7.046;2024-01-25T14:17:35;8.40;99.90
5796;DHT22;2924;51.458;7.046;2024-01-25T14:20:02;8.60;99.90
5796;DHT22;2924;51.458;7.046;2024-01-25T14:22:29;8.60;99.90
5796;DHT22;2924;51.458;7.046;2024-01-25T14:24:55;8.70;99.90
5796;DHT22;2924;51.458;7.046;2024-01-25T14:27:21;8.70;99.90
5796;DHT22;2924;51.458;7.046;2024-01-25T14:29:46;8.70;99.90
5796;DHT22;2924;51.458;7.046;2024-01-25T14:32:12;8.70;99.90
5796;DHT22;2924;51.458;7.046;2024-01-25T14:34:37;8.70;99.90
5796;DHT22;2924;51.458;7.046;2024-01-25T14:37:03;8.60;99.90
5796;DHT22;2924;51.458;7.046;2024-01-25T14:39:29;8.60;99.90
5796;DHT22;2924;51.458;7.046;2024-01-25T14:41:54;8.60;99.90
5796;DHT22;2924;51.458;7.046;2024-01-25T14:44:20;8.60;99.90
5796;DHT22;2924;51.458;7.046;2024-01-25T14:46:46;8.50;99.90
5796;DHT22;2924;51.458;7.046;2024-01-25T14:49:12;8.50;99.90
5796;DHT22;2924;51.458;7.046;2024-01-25T14:51:37;8.40;99.90
5796;DHT22;2924;51.458;7.046;2024-01-25T14:54:03;8.30;99.90
5796;DHT22;2924;51.458;7.046;2024-01-25T14:56:29;8.30;99.90
5796;DHT22;2924;51.458;7.046;2024-01-25T14:58:54;8.20;99.90
5796;DHT22;2924;51.458;7.046;2024-01-25T15:01:21;8.30;99.90
5796;DHT22;2924;51.458;7.046;2024-01-25T15:03:53;8.20;99.90
5796;DHT22;2924;51.458;7.046;2024-01-25T15:06:18;8.20;99.90
5796;DHT22;2924;51.458;7.046;2024-01-25T15:08:44;8.20;99.90
5796;DHT22;2924;51.458;7.046;2024-01-25T15:11:09;8.10;99.90
5796;DHT22;2924;51.458;7.046;2024-01-25T15:13:35;8.20;99.90
5796;DHT22;2924;51.458;7.046;2024-01-25T15:16:01;8.20;99.90
5796;DHT22;2924;51.458;7.046;2024-01-25T15:18:27;8.20;99.90
5796;DHT22;2924;51.458;7.046;2024-01-25T15:20:52;8.10;99.90
5796;DHT22;2924;51.458;7.046;2024-01-25T15:23:18;8.20;99.90
5796;DHT22;2924;51.458;7.046;2024-01-25T15:25:44;8.20;99.90
5796;DHT22;2924;51.458;7.046;2024-01-25T15:28:09;8.20;99.90
5796;DHT22;2924;51.458;7.046;2024-01-25T15:30:35;8.10;99.90
5796;DHT22;2924;51.458;7.046;2024-01-25T15:33:01;8.10;99.90
5796;DHT22;2924;51.458;7.046;2024-01-25T15:35:32;8.10;99.90
5796;DHT22;2924;51.458;7.046;2024-01-25T15:37:57;8.10;99.90
5796;DHT22;2924;51.458;7.046;2024-01-25T15:40:23;8.10;99.90
5796;DHT22;2924;51.458;7.046;2024-01-25T15:42:49;8.00;99.90
5796;DHT22;2924;51.458;7.046;2024-01-25T15:45:19;8.10;99.90
5796;DHT22;2924;51.458;7.046;2024-01-25T15:47:45;8.00;99.90
5796;DHT22;2924;51.458;7.046;2024-01-25T15:50:11;8.10;99.90
5796;DHT22;2924;51.458;7.046;2024-01-25T15:52:37;8.00;99.90
5796;DHT22;2924;51.458;7.046;2024-01-25T15:55:02;8.00;99.90
5796;DHT22;2924;51.458;7.046;2024-01-25T15:57:29;8.00;99.90
5796;DHT22;2924;51.458;7.046;2024-01-25T15:59:55;7.90;99.90
5796;DHT22;2924;51.458;7.046;2024-01-25T16:02:20;8.10;99.90
5796;DHT22;2924;51.458;7.046;2024-01-25T16:04:46;8.00;99.90
5796;DHT22;2924;51.458;7.046;2024-01-25T16:07:12;7.90;99.90
5796;DHT22;2924;51.458;7.046;2024-01-25T16:09:37;7.90;99.90